createdAt,value
2023-05-10T00:00:24.860Z,14.37
2023-05-10T00:02:51.994Z,14.43
2023-05-10T00:05:19.068Z,14.60
2023-05-10T00:07:46.295Z,14.55
2023-05-10T00:10:13.251Z,15.12
2023-05-10T00:12:40.437Z,15.12
2023-05-10T00:15:08.169Z,14.99
2023-05-10T00:17:35.077Z,14.27
2023-05-10T00:20:02.038Z,14.95
2023-05-10T00:22:28.976Z,15.16
2023-05-10T00:24:55.819Z,14.67
2023-05-10T00:27:22.660Z,14.43
2023-05-10T00:29:49.515Z,14.23
2023-05-10T00:32:16.751Z,13.83
2023-05-10T00:34:43.797Z,14.52
2023-05-10T00:37:10.664Z,14.85
2023-05-10T00:39:37.487Z,15.23
2023-05-10T00:42:05.626Z,14.64
2023-05-10T00:44:32.446Z,14.37
2023-05-10T00:47:00.030Z,14.73
2023-05-10T00:49:27.156Z,14.71
2023-05-10T00:51:54.349Z,14.93
2023-05-10T00:54:21.734Z,14.58
2023-05-10T00:56:50.290Z,14.21
2023-05-10T00:59:18.908Z,14.45
2023-05-10T01:01:48.756Z,14.34
2023-05-10T01:04:16.085Z,13.81
2023-05-10T01:06:43.454Z,13.17
2023-05-10T01:09:10.988Z,12.25
2023-05-10T01:11:39.815Z,9.81
2023-05-10T01:14:07.444Z,10.99
2023-05-10T01:16:39.723Z,9.39
2023-05-10T01:19:08.450Z,9.50
2023-05-10T01:21:58.243Z,10.81
2023-05-10T01:24:30.589Z,11.93
2023-05-10T01:27:28.730Z,12.27
2023-05-10T01:30:15.636Z,12.72
2023-05-10T01:33:01.009Z,13.52
2023-05-10T01:35:57.651Z,13.37
2023-05-10T01:38:42.103Z,12.95
2023-05-10T01:41:14.774Z,13.65
2023-05-10T01:43:51.270Z,13.71
2023-05-10T01:46:31.764Z,13.51
2023-05-10T01:49:00.477Z,13.61
2023-05-10T01:51:32.684Z,13.84
2023-05-10T01:54:02.844Z,13.96
2023-05-10T01:56:32.111Z,13.97
2023-05-10T01:59:00.061Z,13.51
2023-05-10T02:01:28.143Z,13.62
2023-05-10T02:03:56.475Z,13.57
2023-05-10T02:06:23.623Z,13.57
2023-05-10T02:08:51.550Z,13.92
2023-05-10T02:11:19.180Z,13.96
2023-05-10T02:13:48.404Z,14.19
2023-05-10T02:16:16.150Z,14.22
2023-05-10T02:18:43.386Z,14.54
2023-05-10T02:21:11.741Z,14.64
2023-05-10T02:23:38.783Z,14.70
2023-05-10T02:26:06.975Z,15.24
2023-05-10T02:28:34.426Z,14.49
2023-05-10T02:31:01.733Z,14.28
2023-05-10T02:33:28.837Z,14.22
2023-05-10T02:35:56.117Z,14.05
2023-05-10T02:38:23.393Z,14.18
2023-05-10T02:40:50.320Z,14.08
2023-05-10T02:43:19.149Z,14.51
2023-05-10T02:45:48.556Z,14.22
2023-05-10T02:48:15.714Z,13.81
2023-05-10T02:50:45.599Z,14.28
2023-05-10T02:53:17.583Z,14.74
2023-05-10T02:55:47.669Z,14.75
2023-05-10T02:58:14.569Z,14.31
2023-05-10T03:00:41.416Z,13.96
2023-05-10T03:03:08.841Z,13.88
2023-05-10T03:05:35.685Z,13.86
2023-05-10T03:08:05.271Z,13.40
2023-05-10T03:10:33.379Z,12.44
2023-05-10T03:13:18.560Z,12.39
2023-05-10T03:16:10.314Z,12.45
2023-05-10T03:18:45.661Z,11.47
2023-05-10T03:21:13.648Z,12.50
2023-05-10T03:23:43.479Z,12.57
2023-05-10T03:26:10.429Z,12.49
2023-05-10T03:28:38.048Z,12.53
2023-05-10T03:31:06.846Z,13.18
2023-05-10T03:33:33.746Z,12.94
2023-05-10T03:36:00.596Z,13.19
2023-05-10T03:38:29.699Z,13.34
2023-05-10T03:40:57.320Z,12.98
2023-05-10T03:43:24.153Z,10.89
2023-05-10T03:45:50.842Z,10.27
2023-05-10T03:48:17.706Z,11.33
2023-05-10T03:50:44.611Z,12.36
2023-05-10T03:53:11.419Z,12.50
2023-05-10T03:55:38.077Z,12.43
2023-05-10T03:58:04.939Z,12.72
2023-05-10T04:00:32.129Z,13.04
2023-05-10T04:02:59.029Z,13.29
2023-05-10T04:05:25.947Z,13.64
2023-05-10T04:07:52.816Z,12.61
2023-05-10T04:10:19.815Z,13.79
2023-05-10T04:12:46.793Z,13.15
2023-05-10T04:15:13.678Z,12.83
2023-05-10T04:17:40.759Z,12.26
2023-05-10T04:20:08.456Z,12.48
2023-05-10T04:22:35.318Z,12.74
2023-05-10T04:25:02.131Z,12.22
2023-05-10T04:27:28.797Z,12.74
2023-05-10T04:29:55.621Z,13.35
2023-05-10T04:32:22.297Z,12.68
2023-05-10T04:34:49.156Z,12.84
2023-05-10T04:37:16.153Z,12.43
2023-05-10T04:39:43.035Z,13.10
2023-05-10T04:42:10.181Z,12.37
2023-05-10T04:44:37.484Z,12.67
2023-05-10T04:47:04.471Z,12.95
2023-05-10T04:49:31.393Z,12.49
2023-05-10T04:51:58.217Z,13.30
2023-05-10T04:54:24.913Z,12.41
2023-05-10T04:56:51.836Z,12.73
2023-05-10T04:59:18.671Z,13.06
2023-05-10T05:01:45.326Z,12.89
2023-05-10T05:04:12.550Z,12.87
2023-05-10T05:06:39.456Z,12.31
2023-05-10T05:09:06.310Z,12.73
2023-05-10T05:11:33.216Z,14.03
2023-05-10T05:14:00.703Z,15.08
2023-05-10T05:16:27.738Z,15.57
2023-05-10T05:18:54.683Z,15.76
2023-05-10T05:21:22.465Z,16.39
2023-05-10T05:23:49.353Z,17.07
2023-05-10T05:26:16.292Z,16.58
2023-05-10T05:28:43.273Z,16.39
2023-05-10T05:31:10.290Z,16.41
2023-05-10T05:33:37.638Z,16.59
2023-05-10T05:36:07.625Z,15.39
2023-05-10T05:38:34.479Z,16.93
2023-05-10T05:41:01.577Z,16.28
2023-05-10T05:43:28.462Z,17.16
2023-05-10T05:45:55.567Z,18.80
2023-05-10T05:48:22.441Z,17.49
2023-05-10T05:50:49.311Z,17.24
2023-05-10T05:53:16.901Z,17.84
2023-05-10T05:56:01.821Z,17.95
2023-05-10T05:58:29.116Z,17.18
2023-05-10T06:00:55.973Z,17.56
2023-05-10T06:03:22.852Z,17.67
2023-05-10T06:05:49.942Z,18.47
2023-05-10T06:08:16.856Z,17.59
2023-05-10T06:10:43.771Z,17.88
2023-05-10T06:13:11.071Z,17.82
2023-05-10T06:15:38.096Z,18.19
2023-05-10T06:18:05.415Z,17.54
2023-05-10T06:20:32.746Z,17.49
2023-05-10T06:22:59.854Z,18.14
2023-05-10T06:25:26.853Z,16.77
2023-05-10T06:27:58.428Z,16.87
2023-05-10T06:30:29.824Z,17.60
2023-05-10T06:32:57.486Z,16.83
2023-05-10T06:35:24.530Z,17.27
2023-05-10T06:37:52.104Z,16.36
2023-05-10T06:40:19.405Z,16.84
2023-05-10T06:42:47.476Z,16.31
2023-05-10T06:45:15.877Z,16.77
2023-05-10T06:47:43.155Z,16.46
2023-05-10T06:50:10.836Z,17.00
2023-05-10T06:52:37.822Z,16.52
2023-05-10T06:55:05.901Z,16.19
2023-05-10T06:57:33.119Z,16.18
2023-05-10T07:00:00.422Z,16.26
2023-05-10T07:02:27.751Z,16.66
2023-05-10T07:04:55.351Z,16.85
2023-05-10T07:07:22.385Z,16.67
2023-05-10T07:09:52.307Z,17.50
2023-05-10T07:12:19.234Z,17.50
2023-05-10T07:14:46.515Z,17.65
2023-05-10T07:17:13.431Z,16.82
2023-05-10T07:19:40.341Z,16.75
2023-05-10T07:22:10.003Z,17.23
2023-05-10T07:24:37.505Z,16.58
2023-05-10T07:27:05.427Z,17.19
2023-05-10T07:29:32.409Z,16.89
2023-05-10T07:31:59.369Z,17.90
2023-05-10T07:34:26.625Z,18.13
2023-05-10T07:36:53.831Z,17.98
2023-05-10T07:39:27.502Z,18.08
2023-05-10T07:41:55.960Z,18.28
2023-05-10T07:44:22.972Z,18.31
2023-05-10T07:46:49.977Z,18.56
2023-05-10T07:49:17.328Z,18.10
2023-05-10T07:51:44.446Z,18.59
2023-05-10T07:54:11.379Z,18.36
2023-05-10T07:56:38.257Z,18.02
2023-05-10T07:59:07.362Z,18.44
2023-05-10T08:01:35.455Z,19.19
2023-05-10T08:04:03.123Z,19.50
2023-05-10T08:06:31.430Z,19.14
2023-05-10T08:08:59.989Z,19.17
2023-05-10T08:11:28.811Z,19.07
2023-05-10T08:13:55.927Z,18.25
2023-05-10T08:16:23.259Z,18.87
2023-05-10T08:18:52.000Z,19.02
2023-05-10T08:21:19.069Z,18.64
2023-05-10T08:23:46.227Z,18.65
2023-05-10T08:26:13.202Z,18.32
2023-05-10T08:28:40.077Z,18.16
2023-05-10T08:31:07.129Z,18.50
2023-05-10T08:33:34.270Z,19.39
2023-05-10T08:36:01.140Z,19.11
2023-05-10T08:38:28.268Z,19.36
2023-05-10T08:40:58.107Z,18.27
2023-05-10T08:43:28.588Z,18.58
2023-05-10T08:45:57.101Z,19.29
2023-05-10T08:48:25.954Z,18.23
2023-05-10T08:50:58.683Z,18.06
2023-05-10T08:53:27.799Z,18.10
2023-05-10T08:55:54.806Z,18.08
2023-05-10T08:58:21.699Z,18.57
2023-05-10T09:00:52.623Z,18.76
2023-05-10T09:03:19.793Z,18.57
2023-05-10T09:05:47.078Z,19.01
2023-05-10T09:08:16.874Z,19.21
2023-05-10T09:10:46.155Z,19.28
2023-05-10T09:13:13.792Z,18.49
2023-05-10T09:15:40.738Z,19.05
2023-05-10T09:18:07.665Z,18.63
2023-05-10T09:20:34.552Z,19.26
2023-05-10T09:23:01.416Z,19.71
2023-05-10T09:25:28.359Z,19.57
2023-05-10T09:27:56.281Z,18.61
2023-05-10T09:30:26.860Z,19.56
2023-05-10T09:32:54.463Z,18.73
2023-05-10T09:35:25.440Z,17.59
2023-05-10T09:37:55.394Z,18.73
2023-05-10T09:40:26.543Z,19.10
2023-05-10T09:43:01.780Z,18.87
2023-05-10T09:45:30.693Z,18.89
2023-05-10T09:47:58.013Z,19.28
2023-05-10T09:50:25.160Z,19.19
2023-05-10T09:52:59.504Z,19.33
2023-05-10T09:55:42.513Z,18.56
2023-05-10T09:58:17.723Z,19.00
2023-05-10T10:00:46.363Z,19.16
2023-05-10T10:03:17.885Z,18.88
2023-05-10T10:05:45.708Z,18.73
2023-05-10T10:08:13.465Z,18.71
2023-05-10T10:10:47.648Z,18.85
2023-05-10T10:13:15.905Z,19.62
2023-05-10T10:15:44.133Z,19.44
2023-05-10T10:18:32.000Z,19.28
2023-05-10T10:20:59.224Z,18.45
2023-05-10T10:23:26.433Z,18.48
2023-05-10T10:25:55.337Z,18.45
2023-05-10T10:28:54.833Z,19.30
2023-05-10T10:31:40.342Z,19.60
2023-05-10T10:34:15.146Z,19.29
2023-05-10T10:36:46.916Z,18.81
2023-05-10T10:39:31.121Z,19.30
2023-05-10T10:41:58.905Z,20.16
2023-05-10T10:44:33.226Z,21.03
2023-05-10T10:47:09.631Z,21.31
2023-05-10T10:55:50.125Z,21.56
2023-05-10T10:58:33.306Z,20.78
2023-05-10T11:01:20.831Z,20.85
2023-05-10T11:03:59.753Z,21.60
2023-05-10T11:06:33.699Z,21.81
2023-05-10T11:09:06.522Z,21.71
2023-05-10T11:11:33.443Z,21.62
2023-05-10T11:14:05.166Z,20.54
2023-05-10T11:16:43.594Z,19.87
2023-05-10T11:19:48.844Z,20.68
2023-05-10T11:22:15.989Z,20.38
2023-05-10T11:24:57.976Z,21.38
2023-05-10T11:27:24.920Z,21.33
2023-05-10T11:29:54.929Z,21.06
2023-05-10T11:32:22.085Z,21.31
2023-05-10T11:34:49.528Z,21.60
2023-05-10T11:37:16.388Z,20.51
2023-05-10T11:39:50.528Z,20.65
2023-05-10T11:42:17.411Z,20.62
2023-05-10T11:44:46.967Z,20.52
2023-05-10T11:47:13.877Z,21.06
2023-05-10T11:49:45.039Z,20.18
2023-05-10T11:52:14.940Z,20.12
2023-05-10T11:54:55.512Z,20.67
2023-05-10T11:57:28.058Z,21.31
2023-05-10T11:59:56.230Z,21.32
2023-05-10T12:02:23.176Z,21.06
2023-05-10T12:04:51.107Z,22.01
2023-05-10T12:07:18.381Z,22.51
2023-05-10T12:09:46.331Z,22.31
2023-05-10T12:12:19.426Z,22.45
2023-05-10T12:14:50.496Z,22.53
2023-05-10T12:17:17.611Z,21.40
2023-05-10T12:19:44.974Z,20.77
2023-05-10T12:22:11.865Z,20.48
2023-05-10T12:24:41.692Z,20.27
2023-05-10T12:27:13.429Z,20.38
2023-05-10T12:29:44.923Z,20.92
2023-05-10T12:32:12.148Z,20.94
2023-05-10T12:34:39.711Z,20.38
2023-05-10T12:37:06.676Z,20.51
2023-05-10T12:39:44.884Z,20.32
2023-05-10T12:42:11.983Z,20.39
2023-05-10T12:44:38.908Z,20.16
2023-05-10T12:47:06.192Z,20.86
2023-05-10T12:49:33.329Z,20.60
2023-05-10T12:52:00.233Z,20.75
2023-05-10T12:54:27.185Z,21.02
2023-05-10T12:56:54.070Z,20.79
2023-05-10T12:59:20.941Z,21.17
2023-05-10T13:01:47.884Z,21.78
2023-05-10T13:04:14.831Z,22.22
2023-05-10T13:06:42.028Z,22.28
2023-05-10T13:09:08.952Z,22.19
2023-05-10T13:11:35.880Z,21.92
2023-05-10T13:14:04.373Z,21.84
2023-05-10T13:16:32.460Z,21.95
2023-05-10T13:18:59.723Z,21.59
2023-05-10T13:21:26.926Z,21.32
2023-05-10T13:23:54.695Z,21.52
2023-05-10T13:26:21.543Z,21.93
2023-05-10T13:28:49.982Z,21.87
2023-05-10T13:31:17.044Z,21.82
2023-05-10T13:33:44.053Z,21.84
2023-05-10T13:36:10.992Z,21.66
2023-05-10T13:38:38.547Z,22.00
2023-05-10T13:41:05.723Z,21.99
2023-05-10T13:43:32.757Z,21.90
2023-05-10T13:45:59.697Z,21.71
2023-05-10T13:48:26.597Z,22.14
2023-05-10T13:50:53.512Z,21.88
2023-05-10T13:53:20.512Z,22.00
2023-05-10T13:55:47.416Z,21.96
2023-05-10T13:58:14.368Z,21.81
2023-05-10T14:00:41.423Z,21.84
2023-05-10T14:03:10.310Z,21.28
2023-05-10T14:05:37.435Z,20.61
2023-05-10T14:08:05.394Z,20.23
2023-05-10T14:10:32.291Z,20.02
2023-05-10T14:12:59.172Z,20.19
2023-05-10T14:15:28.083Z,20.84
2023-05-10T14:17:55.143Z,21.27
2023-05-10T14:20:22.058Z,20.80
2023-05-10T14:22:49.039Z,21.35
2023-05-10T14:25:16.396Z,21.61
2023-05-10T14:27:43.456Z,21.94
2023-05-10T14:30:11.961Z,21.20
2023-05-10T14:32:39.049Z,21.06
2023-05-10T14:35:07.324Z,21.39
2023-05-10T14:37:34.492Z,21.31
2023-05-10T14:40:01.568Z,21.45
2023-05-10T14:42:29.564Z,21.13
2023-05-10T14:44:56.463Z,21.12
2023-05-10T14:47:23.423Z,20.82
2023-05-10T14:49:50.392Z,20.49
2023-05-10T14:52:17.732Z,20.97
2023-05-10T14:54:44.658Z,20.66
2023-05-10T14:57:11.507Z,20.92
2023-05-10T14:59:38.372Z,20.38
2023-05-10T15:02:05.628Z,19.94
2023-05-10T15:04:33.356Z,20.65
2023-05-10T15:07:01.045Z,21.27
2023-05-10T15:09:28.876Z,20.89
2023-05-10T15:11:56.348Z,21.20
2023-05-10T15:14:23.931Z,20.62
2023-05-10T15:16:50.831Z,20.77
2023-05-10T15:19:17.739Z,20.89
2023-05-10T15:21:45.690Z,21.07
2023-05-10T15:24:12.619Z,20.90
2023-05-10T15:26:39.569Z,20.82
2023-05-10T15:29:06.403Z,21.33
2023-05-10T15:31:36.190Z,21.45
2023-05-10T15:34:03.195Z,21.01
2023-05-10T15:36:30.059Z,20.92
2023-05-10T15:38:57.015Z,20.87
2023-05-10T15:41:24.807Z,20.64
2023-05-10T15:43:51.771Z,20.39
2023-05-10T15:46:18.696Z,20.74
2023-05-10T15:48:45.600Z,21.21
2023-05-10T15:51:12.542Z,21.12
2023-05-10T15:53:46.668Z,20.94
2023-05-10T15:56:19.920Z,20.55
2023-05-10T15:58:46.977Z,20.52
2023-05-10T16:01:13.962Z,20.49
2023-05-10T16:03:40.897Z,20.87
2023-05-10T16:06:08.160Z,20.66
2023-05-10T16:08:35.508Z,20.78
2023-05-10T16:11:02.530Z,20.80
2023-05-10T16:13:29.630Z,20.31
2023-05-10T16:15:57.957Z,20.21
2023-05-10T16:18:25.071Z,20.23
2023-05-10T16:20:52.375Z,19.86
2023-05-10T16:23:19.592Z,20.57
2023-05-10T16:25:46.650Z,20.31
2023-05-10T16:28:13.504Z,20.38
2023-05-10T16:30:40.726Z,20.31
2023-05-10T16:33:07.597Z,20.44
2023-05-10T16:35:34.437Z,20.70
2023-05-10T16:38:01.285Z,20.73
2023-05-10T16:40:28.177Z,20.06
2023-05-10T16:42:55.023Z,20.27
2023-05-10T16:45:21.945Z,20.23
2023-05-10T16:47:49.003Z,20.43
2023-05-10T16:50:15.904Z,20.59
2023-05-10T16:52:42.792Z,20.24
2023-05-10T16:55:09.902Z,20.74
2023-05-10T16:57:36.924Z,20.20
2023-05-10T17:00:05.250Z,20.20
2023-05-10T17:02:32.336Z,20.30
2023-05-10T17:04:59.258Z,20.38
2023-05-10T17:07:26.574Z,20.60
2023-05-10T17:09:53.424Z,20.48
2023-05-10T17:12:20.358Z,20.75
2023-05-10T17:14:47.493Z,20.40
2023-05-10T17:17:14.436Z,19.99
2023-05-10T17:19:45.001Z,19.90
2023-05-10T17:22:13.469Z,19.98
2023-05-10T17:24:40.389Z,20.39
2023-05-10T17:27:07.263Z,20.33
2023-05-10T17:29:34.167Z,20.14
2023-05-10T17:32:01.188Z,20.03
2023-05-10T17:34:28.245Z,20.43
2023-05-10T17:36:55.695Z,19.59
2023-05-10T17:39:22.671Z,19.32
2023-05-10T17:41:49.513Z,19.30
2023-05-10T17:44:16.426Z,19.61
2023-05-10T17:46:43.677Z,19.48
2023-05-10T17:49:10.646Z,19.56
2023-05-10T17:51:37.560Z,20.19
2023-05-10T17:54:04.505Z,19.88
2023-05-10T17:56:31.352Z,19.62
2023-05-10T17:58:58.236Z,19.30
2023-05-10T18:01:25.157Z,19.78
2023-05-10T18:03:53.001Z,19.40
2023-05-10T18:06:20.092Z,19.40
2023-05-10T18:08:46.961Z,19.38
2023-05-10T18:11:13.948Z,19.33
2023-05-10T18:13:41.078Z,19.55
2023-05-10T18:16:09.003Z,19.62
2023-05-10T18:18:43.096Z,19.20
2023-05-10T18:21:10.074Z,19.05
2023-05-10T18:23:37.352Z,19.77
2023-05-10T18:26:04.427Z,19.78
2023-05-10T18:28:31.300Z,19.22
2023-05-10T18:30:58.360Z,19.01
2023-05-10T18:33:25.323Z,19.07
2023-05-10T18:35:52.234Z,18.89
2023-05-10T18:38:19.671Z,19.28
2023-05-10T18:40:46.582Z,18.99
2023-05-10T18:43:13.436Z,19.20
2023-05-10T18:45:40.320Z,19.25
2023-05-10T18:48:08.034Z,19.42
2023-05-10T18:50:35.014Z,19.28
2023-05-10T18:53:02.287Z,19.72
2023-05-10T18:55:29.991Z,18.65
2023-05-10T18:57:56.905Z,18.65
2023-05-10T19:00:24.102Z,18.94
2023-05-10T19:02:51.162Z,18.82
2023-05-10T19:05:18.542Z,18.52
2023-05-10T19:07:45.767Z,18.34
2023-05-10T19:10:13.729Z,18.85
2023-05-10T19:12:43.207Z,18.43
2023-05-10T19:15:10.694Z,18.32
2023-05-10T19:17:40.840Z,18.94
2023-05-10T19:20:09.532Z,18.94
2023-05-10T19:22:54.316Z,18.83
2023-05-10T19:25:29.707Z,18.64
2023-05-10T19:27:59.814Z,19.18
2023-05-10T19:30:26.896Z,18.87
2023-05-10T19:32:55.521Z,18.95
2023-05-10T19:35:23.610Z,18.41
2023-05-10T19:37:51.064Z,18.64
2023-05-10T19:40:18.745Z,18.39
2023-05-10T19:42:45.697Z,17.96
2023-05-10T19:45:12.648Z,18.49
2023-05-10T19:47:39.577Z,18.52
2023-05-10T19:50:07.627Z,19.16
2023-05-10T19:52:34.634Z,19.13
2023-05-10T19:55:01.571Z,19.10
2023-05-10T19:57:28.420Z,19.48
2023-05-10T19:59:55.319Z,19.34
2023-05-10T20:02:22.210Z,19.54
2023-05-10T20:04:49.168Z,20.21
2023-05-10T20:07:16.268Z,19.62
2023-05-10T20:09:44.382Z,19.87
2023-05-10T20:12:11.244Z,19.62
2023-05-10T20:14:38.166Z,19.78
2023-05-10T20:17:05.310Z,20.04
2023-05-10T20:19:32.413Z,20.05
2023-05-10T20:21:59.338Z,19.92
2023-05-10T20:24:26.195Z,19.73
2023-05-10T20:26:53.063Z,20.42
2023-05-10T20:29:19.977Z,20.02
2023-05-10T20:31:46.897Z,20.02
2023-05-10T20:34:13.882Z,20.24
2023-05-10T20:36:40.711Z,19.73
2023-05-10T20:39:07.576Z,19.92
2023-05-10T20:41:34.389Z,18.99
2023-05-10T20:44:01.200Z,19.13
2023-05-10T20:46:28.249Z,18.83
2023-05-10T20:48:55.167Z,19.55
2023-05-10T20:51:22.005Z,19.95
2023-05-10T20:53:48.834Z,19.28
2023-05-10T20:56:15.765Z,18.94
2023-05-10T20:58:42.617Z,19.10
2023-05-10T21:01:09.563Z,19.44
2023-05-10T21:03:36.441Z,19.38
2023-05-10T21:06:03.348Z,19.19
2023-05-10T21:08:30.175Z,19.70
2023-05-10T21:10:57.082Z,19.05
2023-05-10T21:13:23.950Z,18.00
2023-05-10T21:15:50.938Z,19.02
2023-05-10T21:18:17.860Z,18.49
2023-05-10T21:20:44.776Z,19.34
2023-05-10T21:23:11.629Z,19.10
2023-05-10T21:25:38.824Z,18.93
2023-05-10T21:28:05.725Z,19.96
2023-05-10T21:30:33.642Z,19.04
2023-05-10T21:33:01.914Z,18.20
2023-05-10T21:35:30.102Z,17.89
2023-05-10T21:37:57.457Z,18.33
2023-05-10T21:40:24.387Z,18.09
2023-05-10T21:42:51.305Z,17.57
2023-05-10T21:45:19.867Z,17.75
2023-05-10T21:47:46.803Z,17.90
2023-05-10T21:50:13.742Z,18.21
2023-05-10T21:52:40.564Z,17.40
2023-05-10T21:55:08.786Z,17.10
2023-05-10T21:57:36.760Z,17.35
2023-05-10T22:00:03.886Z,17.68
2023-05-10T22:02:30.908Z,17.37
2023-05-10T22:04:58.135Z,17.41
2023-05-10T22:07:25.091Z,17.05
2023-05-10T22:09:51.905Z,17.79
2023-05-10T22:12:18.741Z,17.50
2023-05-10T22:14:45.987Z,16.55
2023-05-10T22:17:12.950Z,17.14
2023-05-10T22:19:39.851Z,17.48
2023-05-10T22:22:06.726Z,18.51
2023-05-10T22:24:33.563Z,17.69
2023-05-10T22:27:01.111Z,17.86
2023-05-10T22:29:28.369Z,17.48
2023-05-10T22:31:55.308Z,17.09
2023-05-10T22:34:22.198Z,16.80
2023-05-10T22:36:50.554Z,16.35
2023-05-10T22:39:17.767Z,17.23
2023-05-10T22:41:44.640Z,16.70
2023-05-10T22:44:11.512Z,17.12
2023-05-10T22:46:38.503Z,16.63
2023-05-10T22:49:06.382Z,17.11
2023-05-10T22:51:33.395Z,17.63
2023-05-10T22:54:00.240Z,17.02
2023-05-10T22:56:27.616Z,18.17
2023-05-10T22:58:54.961Z,17.60
2023-05-10T23:01:21.829Z,16.82
2023-05-10T23:03:48.721Z,17.09
2023-05-10T23:06:15.555Z,17.33
2023-05-10T23:08:42.446Z,17.57
2023-05-10T23:11:09.345Z,17.62
2023-05-10T23:13:36.247Z,17.39
2023-05-10T23:16:06.973Z,17.87
2023-05-10T23:18:34.181Z,18.06
2023-05-10T23:21:01.162Z,18.12
2023-05-10T23:23:28.007Z,17.12
2023-05-10T23:25:54.967Z,17.29
2023-05-10T23:28:21.814Z,17.79
2023-05-10T23:30:55.754Z,17.25
2023-05-10T23:33:23.420Z,17.51
2023-05-10T23:35:50.317Z,17.09
2023-05-10T23:38:17.342Z,16.53
2023-05-10T23:40:48.220Z,16.15
2023-05-10T23:43:16.329Z,16.06
2023-05-10T23:45:43.428Z,17.55
2023-05-10T23:48:10.358Z,17.58
2023-05-10T23:50:37.328Z,15.74
2023-05-10T23:53:04.155Z,17.17
2023-05-10T23:55:31.037Z,16.28
2023-05-10T23:57:57.848Z,16.01
